createdAt,value
2022-08-30T00:01:09.177Z,17.08
2022-08-30T00:03:47.550Z,17.05
2022-08-30T00:06:16.934Z,17.04
2022-08-30T00:08:44.095Z,16.98
2022-08-30T00:11:14.387Z,16.91
2022-08-30T00:13:43.404Z,16.89
2022-08-30T00:16:11.193Z,16.87
2022-08-30T00:18:39.211Z,16.85
2022-08-30T00:21:06.763Z,16.83
2022-08-30T00:23:33.488Z,16.84
2022-08-30T00:26:00.874Z,16.78
2022-08-30T00:28:27.535Z,16.76
2022-08-30T00:30:55.076Z,16.74
2022-08-30T00:33:22.299Z,16.76
2022-08-30T00:35:52.062Z,16.68
2022-08-30T00:38:18.918Z,16.62
2022-08-30T00:40:46.289Z,16.61
2022-08-30T00:43:36.870Z,16.56
2022-08-30T00:46:07.805Z,16.51
2022-08-30T00:48:38.943Z,16.50
2022-08-30T00:51:11.455Z,16.51
2022-08-30T00:53:42.735Z,16.50
2022-08-30T00:56:10.830Z,16.51
2022-08-30T00:58:43.127Z,16.48
2022-08-30T01:01:10.718Z,16.49
2022-08-30T01:03:39.291Z,16.49
2022-08-30T01:06:07.678Z,16.51
2022-08-30T01:08:35.255Z,16.55
2022-08-30T01:11:04.237Z,16.49
2022-08-30T01:13:32.947Z,16.41
2022-08-30T01:16:00.446Z,16.40
2022-08-30T01:18:29.484Z,16.43
2022-08-30T01:21:07.325Z,16.43
2022-08-30T01:23:40.511Z,16.36
2022-08-30T01:26:07.632Z,16.34
2022-08-30T01:28:35.417Z,16.31
2022-08-30T01:31:02.603Z,16.32
2022-08-30T01:33:30.037Z,16.33
2022-08-30T01:36:00.542Z,16.30
2022-08-30T01:38:34.902Z,16.26
2022-08-30T01:41:09.002Z,16.26
2022-08-30T01:43:35.860Z,16.28
2022-08-30T01:46:04.787Z,16.21
2022-08-30T01:48:32.313Z,16.13
2022-08-30T01:50:59.057Z,16.10
2022-08-30T01:53:25.940Z,16.04
2022-08-30T01:55:52.794Z,16.04
2022-08-30T01:58:20.058Z,16.06
2022-08-30T02:00:46.787Z,16.06
2022-08-30T02:03:13.835Z,16.04
2022-08-30T02:05:40.786Z,16.01
2022-08-30T02:08:07.778Z,15.99
2022-08-30T02:10:34.510Z,15.99
2022-08-30T02:13:01.291Z,15.95
2022-08-30T02:15:30.014Z,15.95
2022-08-30T02:18:01.308Z,15.98
2022-08-30T02:20:28.356Z,15.96
2022-08-30T02:22:57.584Z,15.94
2022-08-30T02:25:26.476Z,15.93
2022-08-30T02:27:53.139Z,15.93
2022-08-30T02:30:20.065Z,15.92
2022-08-30T02:32:46.705Z,15.92
2022-08-30T02:35:14.033Z,15.91
2022-08-30T02:37:40.752Z,15.96
2022-08-30T02:40:08.160Z,15.95
2022-08-30T02:42:34.919Z,15.94
2022-08-30T02:45:02.383Z,15.90
2022-08-30T02:47:29.149Z,15.93
2022-08-30T02:49:55.998Z,15.92
2022-08-30T02:52:27.509Z,15.87
2022-08-30T02:54:55.377Z,15.87
2022-08-30T02:57:22.852Z,15.95
2022-08-30T02:59:50.190Z,16.02
2022-08-30T03:02:17.063Z,16.10
2022-08-30T03:04:46.863Z,16.11
2022-08-30T03:07:13.772Z,16.08
2022-08-30T03:09:40.988Z,16.05
2022-08-30T03:12:09.047Z,16.03
2022-08-30T03:14:37.665Z,16.00
2022-08-30T03:17:06.964Z,15.99
2022-08-30T03:19:39.548Z,15.98
2022-08-30T03:22:07.431Z,15.94
2022-08-30T03:24:34.927Z,15.92
2022-08-30T03:27:01.902Z,15.96
2022-08-30T03:29:29.743Z,15.95
2022-08-30T03:31:57.569Z,15.85
2022-08-30T03:34:26.081Z,15.85
2022-08-30T03:36:54.318Z,15.79
2022-08-30T03:39:22.652Z,15.76
2022-08-30T03:41:51.893Z,15.71
2022-08-30T03:44:19.105Z,15.67
2022-08-30T03:46:46.733Z,15.69
2022-08-30T03:49:13.867Z,15.62
2022-08-30T03:51:40.637Z,15.63
2022-08-30T03:54:07.729Z,15.62
2022-08-30T03:56:34.432Z,15.60
2022-08-30T03:59:01.333Z,15.56
2022-08-30T04:01:28.195Z,15.51
2022-08-30T04:03:56.601Z,15.55
2022-08-30T04:06:23.700Z,15.53
2022-08-30T04:08:50.649Z,15.50
2022-08-30T04:11:17.366Z,15.51
2022-08-30T04:13:44.332Z,15.47
2022-08-30T04:16:11.059Z,15.48
2022-08-30T04:18:38.708Z,15.49
2022-08-30T04:21:05.662Z,15.53
2022-08-30T04:23:32.437Z,15.50
2022-08-30T04:25:59.143Z,15.51
2022-08-30T04:28:26.149Z,15.50
2022-08-30T04:30:52.858Z,15.52
2022-08-30T04:33:19.855Z,15.51
2022-08-30T04:35:49.032Z,15.51
2022-08-30T04:38:17.008Z,15.51
2022-08-30T04:40:47.979Z,15.60
2022-08-30T04:43:15.411Z,15.62
2022-08-30T04:45:42.668Z,15.66
2022-08-30T04:48:10.375Z,15.70
2022-08-30T04:50:37.522Z,15.74
2022-08-30T04:53:13.231Z,15.84
2022-08-30T04:55:41.181Z,15.86
2022-08-30T04:58:08.215Z,15.90
2022-08-30T05:00:35.594Z,15.93
2022-08-30T05:03:02.758Z,15.95
2022-08-30T05:05:41.807Z,16.02
2022-08-30T05:08:11.120Z,16.11
2022-08-30T05:10:43.887Z,16.18
2022-08-30T05:13:11.276Z,16.28
2022-08-30T05:15:39.728Z,16.40
2022-08-30T05:18:08.310Z,16.50
2022-08-30T05:20:39.364Z,16.60
2022-08-30T05:23:06.757Z,16.58
2022-08-30T05:25:38.287Z,16.75
2022-08-30T05:28:05.343Z,16.73
2022-08-30T05:30:35.814Z,16.93
2022-08-30T05:33:03.269Z,17.19
2022-08-30T05:35:30.062Z,17.48
2022-08-30T05:37:56.839Z,17.73
2022-08-30T05:40:23.686Z,17.95
2022-08-30T05:42:51.662Z,18.22
2022-08-30T05:45:20.801Z,18.45
2022-08-30T05:48:08.214Z,18.53
2022-08-30T05:50:38.145Z,18.95
2022-08-30T05:53:06.700Z,19.19
2022-08-30T05:55:33.438Z,19.03
2022-08-30T05:58:01.048Z,18.88
2022-08-30T06:00:30.738Z,18.81
2022-08-30T06:02:58.231Z,18.70
2022-08-30T06:05:25.329Z,18.63
2022-08-30T06:07:52.850Z,18.47
2022-08-30T06:10:20.480Z,18.33
2022-08-30T06:12:47.483Z,18.25
2022-08-30T06:15:14.795Z,18.26
2022-08-30T06:17:49.384Z,18.49
2022-08-30T06:20:23.788Z,19.21
2022-08-30T06:22:55.146Z,19.91
2022-08-30T06:25:22.610Z,20.37
2022-08-30T06:27:54.404Z,20.71
2022-08-30T06:30:23.511Z,21.05
2022-08-30T06:32:50.999Z,21.33
2022-08-30T06:35:18.276Z,21.57
2022-08-30T06:37:45.688Z,21.80
2022-08-30T06:40:14.696Z,22.08
2022-08-30T06:42:41.848Z,22.42
2022-08-30T06:45:10.873Z,22.77
2022-08-30T06:47:40.060Z,22.91
2022-08-30T06:50:07.851Z,23.17
2022-08-30T06:52:40.575Z,23.21
2022-08-30T06:55:08.076Z,23.25
2022-08-30T06:57:34.879Z,24.06
2022-08-30T07:00:02.580Z,24.52
2022-08-30T07:02:29.389Z,24.52
2022-08-30T07:04:56.567Z,24.93
2022-08-30T07:07:24.143Z,25.29
2022-08-30T07:09:51.194Z,25.67
2022-08-30T07:12:17.941Z,25.99
2022-08-30T07:14:45.089Z,26.25
2022-08-30T07:17:34.569Z,26.52
2022-08-30T07:20:03.122Z,27.01
2022-08-30T07:22:29.896Z,27.18
2022-08-30T07:24:56.761Z,27.18
2022-08-30T07:27:23.465Z,27.30
2022-08-30T07:29:50.566Z,27.27
2022-08-30T07:32:17.560Z,27.60
2022-08-30T07:34:44.782Z,28.25
2022-08-30T07:37:18.035Z,27.93
2022-08-30T07:39:47.947Z,28.48
2022-08-30T07:42:15.900Z,29.07
2022-08-30T07:44:42.737Z,28.97
2022-08-30T07:47:10.274Z,29.07
2022-08-30T07:49:38.280Z,29.08
2022-08-30T07:52:05.395Z,29.46
2022-08-30T07:54:32.388Z,29.35
2022-08-30T07:56:59.231Z,30.32
2022-08-30T07:59:26.075Z,30.48
2022-08-30T08:01:53.008Z,30.76
2022-08-30T08:04:20.030Z,30.69
2022-08-30T08:06:47.162Z,30.69
2022-08-30T08:09:14.290Z,31.16
2022-08-30T08:11:41.907Z,30.83
2022-08-30T08:14:09.288Z,31.55
2022-08-30T08:16:38.213Z,31.71
2022-08-30T08:19:09.297Z,31.61
2022-08-30T08:21:36.807Z,31.86
2022-08-30T08:24:04.456Z,32.02
2022-08-30T08:26:33.894Z,32.31
2022-08-30T08:29:00.892Z,31.96
2022-08-30T08:31:33.668Z,31.77
2022-08-30T08:34:06.239Z,31.87
2022-08-30T08:36:35.278Z,32.52
2022-08-30T08:39:05.461Z,32.58
2022-08-30T08:41:53.941Z,32.23
2022-08-30T08:45:05.461Z,32.00
2022-08-30T08:48:04.169Z,31.99
2022-08-30T08:50:32.314Z,32.90
2022-08-30T08:53:46.638Z,33.41
2022-08-30T08:56:17.314Z,32.51
2022-08-30T08:58:53.502Z,33.22
2022-08-30T09:01:23.754Z,34.23
2022-08-30T09:03:51.774Z,38.28
2022-08-30T09:06:45.144Z,39.82
2022-08-30T09:09:13.505Z,40.89
2022-08-30T09:11:44.337Z,40.59
2022-08-30T09:14:22.335Z,42.29
2022-08-30T09:16:58.423Z,41.48
2022-08-30T09:19:35.722Z,41.84
2022-08-30T09:22:32.334Z,42.61
2022-08-30T09:25:14.593Z,42.07
2022-08-30T09:27:44.947Z,42.50
2022-08-30T09:30:20.730Z,43.81
2022-08-30T09:32:58.921Z,41.25
2022-08-30T09:35:39.248Z,41.76
2022-08-30T09:38:13.124Z,43.52
2022-08-30T09:40:44.429Z,42.16
2022-08-30T09:43:17.577Z,41.86
2022-08-30T09:45:47.977Z,41.98
2022-08-30T09:48:38.703Z,43.24
2022-08-30T09:51:11.526Z,43.54
2022-08-30T09:54:07.219Z,43.16
2022-08-30T09:56:59.455Z,43.88
2022-08-30T09:59:50.736Z,43.06
2022-08-30T10:02:55.556Z,44.96
2022-08-30T10:05:25.367Z,44.67
2022-08-30T10:08:25.287Z,44.64
2022-08-30T10:11:07.535Z,45.49
2022-08-30T10:14:29.500Z,46.01
2022-08-30T10:17:27.062Z,44.73
2022-08-30T10:20:16.117Z,44.60
2022-08-30T10:23:03.902Z,45.34
2022-08-30T10:25:42.006Z,45.63
2022-08-30T10:28:21.666Z,45.85
2022-08-30T10:30:56.378Z,46.34
2022-08-30T10:33:31.843Z,46.56
2022-08-30T10:36:02.800Z,40.14
2022-08-30T10:38:32.972Z,37.70
2022-08-30T10:41:20.388Z,41.24
2022-08-30T10:44:08.493Z,42.74
2022-08-30T10:47:01.472Z,44.45
2022-08-30T10:49:33.730Z,45.09
2022-08-30T10:52:12.612Z,46.05
2022-08-30T10:54:47.346Z,44.02
2022-08-30T10:57:15.056Z,43.01
2022-08-30T10:59:48.697Z,42.95
2022-08-30T11:02:30.426Z,43.28
2022-08-30T11:05:13.078Z,45.98
2022-08-30T11:07:58.890Z,46.59
2022-08-30T11:10:49.785Z,48.47
2022-08-30T11:13:30.421Z,48.51
2022-08-30T11:16:07.233Z,47.04
2022-08-30T11:18:53.581Z,47.24
2022-08-30T11:21:32.728Z,47.39
2022-08-30T11:24:01.839Z,48.38
2022-08-30T11:26:50.133Z,48.60
2022-08-30T11:29:37.096Z,47.41
2022-08-30T11:32:13.227Z,47.87
2022-08-30T11:34:47.322Z,49.27
2022-08-30T11:37:37.226Z,48.18
2022-08-30T11:40:06.413Z,47.47
2022-08-30T11:42:43.221Z,48.21
2022-08-30T11:45:25.476Z,47.46
2022-08-30T11:47:59.812Z,47.23
2022-08-30T11:50:55.405Z,48.56
2022-08-30T11:53:48.547Z,46.93
2022-08-30T11:56:46.380Z,49.84
2022-08-30T11:59:21.019Z,47.68
2022-08-30T12:01:51.891Z,48.38
2022-08-30T12:04:24.662Z,44.69
2022-08-30T12:07:08.870Z,48.08
2022-08-30T12:09:36.215Z,48.04
2022-08-30T12:12:11.646Z,49.14
2022-08-30T12:14:48.252Z,43.57
2022-08-30T12:17:37.325Z,44.44
2022-08-30T12:20:13.349Z,47.88
2022-08-30T12:22:41.144Z,48.96
2022-08-30T12:25:24.463Z,48.56
2022-08-30T12:27:51.788Z,48.33
2022-08-30T12:30:27.564Z,49.27
2022-08-30T12:32:55.177Z,48.70
2022-08-30T12:35:28.616Z,49.03
2022-08-30T12:38:03.960Z,45.52
2022-08-30T12:40:34.839Z,47.05
2022-08-30T12:43:05.616Z,47.44
2022-08-30T12:45:44.317Z,48.25
2022-08-30T12:48:19.707Z,47.82
2022-08-30T12:50:54.597Z,46.89
2022-08-30T12:53:42.193Z,46.87
2022-08-30T12:56:13.749Z,48.26
2022-08-30T12:58:48.035Z,47.82
2022-08-30T13:01:35.886Z,46.70
2022-08-30T13:04:13.788Z,47.58
2022-08-30T13:06:42.136Z,47.50
2022-08-30T13:09:10.293Z,47.44
2022-08-30T13:11:37.464Z,43.81
2022-08-30T13:14:19.384Z,44.89
2022-08-30T13:16:46.819Z,39.10
2022-08-30T13:19:27.681Z,35.79
2022-08-30T13:21:57.039Z,34.23
2022-08-30T13:24:25.647Z,38.11
2022-08-30T13:26:55.215Z,41.02
2022-08-30T13:29:26.091Z,38.95
2022-08-30T13:31:53.523Z,37.73
2022-08-30T13:34:22.617Z,42.43
2022-08-30T13:36:58.055Z,44.56
2022-08-30T13:39:25.657Z,43.71
2022-08-30T13:41:53.538Z,38.19
2022-08-30T13:44:20.513Z,35.33
2022-08-30T13:46:54.584Z,33.54
2022-08-30T13:49:44.541Z,32.00
2022-08-30T13:52:22.313Z,31.98
2022-08-30T13:54:51.747Z,38.07
2022-08-30T14:00:17.571Z,40.17
2022-08-30T14:02:49.055Z,39.77
2022-08-30T14:11:04.853Z,36.65
2022-08-30T14:13:31.672Z,39.47
2022-08-30T14:18:52.056Z,41.77
2022-08-30T14:21:24.225Z,41.42
2022-08-30T14:23:53.312Z,41.25
2022-08-30T14:26:45.896Z,40.21
2022-08-30T14:29:16.803Z,38.11
2022-08-30T14:31:43.984Z,36.09
2022-08-30T14:34:12.160Z,34.46
2022-08-30T14:36:41.102Z,33.76
2022-08-30T14:39:11.599Z,34.17
2022-08-30T14:41:47.742Z,34.76
2022-08-30T14:44:16.592Z,34.47
2022-08-30T14:46:44.189Z,33.41
2022-08-30T14:49:12.471Z,33.26
2022-08-30T14:51:40.418Z,32.72
2022-08-30T14:54:07.674Z,31.72
2022-08-30T14:56:36.398Z,30.80
2022-08-30T14:59:03.510Z,30.05
2022-08-30T15:01:31.346Z,29.95
2022-08-30T15:04:01.333Z,30.01
2022-08-30T15:06:28.580Z,29.82
2022-08-30T15:08:56.224Z,29.60
2022-08-30T15:11:25.698Z,29.39
2022-08-30T15:13:53.818Z,29.57
2022-08-30T15:16:25.557Z,29.47
2022-08-30T15:18:53.284Z,29.40
2022-08-30T15:21:32.143Z,29.26
2022-08-30T15:24:01.087Z,28.95
2022-08-30T15:26:28.646Z,28.53
2022-08-30T15:28:55.565Z,28.32
2022-08-30T15:31:28.456Z,28.07
2022-08-30T15:33:55.514Z,27.87
2022-08-30T15:36:24.281Z,27.60
2022-08-30T15:38:52.978Z,27.46
2022-08-30T15:41:19.637Z,27.26
2022-08-30T15:43:46.683Z,26.97
2022-08-30T15:46:32.680Z,26.97
2022-08-30T15:49:03.669Z,26.80
2022-08-30T15:51:41.632Z,26.78
2022-08-30T15:54:11.907Z,26.56
2022-08-30T15:56:39.948Z,26.54
2022-08-30T15:59:10.138Z,26.48
2022-08-30T16:01:39.359Z,26.54
2022-08-30T16:04:07.359Z,26.56
2022-08-30T16:06:37.615Z,26.50
2022-08-30T16:09:06.815Z,26.45
2022-08-30T16:11:34.774Z,26.36
2022-08-30T16:14:02.020Z,26.24
2022-08-30T16:16:31.268Z,26.31
2022-08-30T16:18:58.912Z,26.19
2022-08-30T16:21:30.032Z,26.20
2022-08-30T16:24:00.207Z,26.08
2022-08-30T16:26:29.417Z,26.08
2022-08-30T16:28:56.816Z,26.04
2022-08-30T16:31:26.762Z,25.93
2022-08-30T16:33:54.840Z,25.78
2022-08-30T16:36:28.971Z,25.70
2022-08-30T16:38:58.289Z,25.52
2022-08-30T16:41:25.989Z,25.38
2022-08-30T16:43:54.473Z,25.40
2022-08-30T16:46:27.508Z,25.23
2022-08-30T16:49:01.736Z,25.14
2022-08-30T16:51:31.588Z,25.05
2022-08-30T16:54:07.825Z,24.92
2022-08-30T16:56:35.938Z,24.90
2022-08-30T16:59:09.062Z,24.73
2022-08-30T17:01:38.877Z,24.67
2022-08-30T17:04:08.382Z,24.53
2022-08-30T17:06:36.697Z,24.54
2022-08-30T17:09:06.645Z,24.42
2022-08-30T17:11:36.189Z,24.38
2022-08-30T17:14:04.378Z,24.37
2022-08-30T17:16:31.957Z,24.31
2022-08-30T17:19:01.201Z,24.25
2022-08-30T17:21:30.203Z,24.05
2022-08-30T17:24:01.868Z,23.97
2022-08-30T17:26:35.700Z,23.77
2022-08-30T17:29:04.172Z,23.70
2022-08-30T17:31:31.816Z,23.61
2022-08-30T17:34:03.135Z,23.54
2022-08-30T17:36:35.259Z,23.40
2022-08-30T17:39:09.391Z,23.40
2022-08-30T17:41:50.165Z,23.35
2022-08-30T17:44:28.721Z,23.22
2022-08-30T17:46:57.386Z,23.23
2022-08-30T17:49:26.798Z,23.19
2022-08-30T17:51:56.858Z,23.01
2022-08-30T17:54:42.600Z,22.84
2022-08-30T17:57:11.931Z,22.72
2022-08-30T17:59:39.764Z,22.62
2022-08-30T18:02:08.157Z,22.56
2022-08-30T18:04:41.651Z,22.53
2022-08-30T18:07:13.182Z,22.42
2022-08-30T18:09:42.635Z,22.40
2022-08-30T18:12:11.597Z,22.44
2022-08-30T18:14:39.386Z,22.49
2022-08-30T18:17:07.922Z,22.54
2022-08-30T18:19:36.885Z,22.48
2022-08-30T18:22:14.988Z,22.42
2022-08-30T18:24:42.722Z,22.40
2022-08-30T18:27:09.594Z,22.29
2022-08-30T18:29:38.574Z,22.21
2022-08-30T18:32:09.190Z,22.24
2022-08-30T18:34:36.933Z,22.32
2022-08-30T18:37:04.192Z,22.29
2022-08-30T18:39:34.580Z,22.35
2022-08-30T18:42:03.930Z,22.30
2022-08-30T18:44:33.318Z,22.32
2022-08-30T18:47:03.691Z,22.39
2022-08-30T18:49:33.057Z,22.37
2022-08-30T18:52:01.667Z,22.43
2022-08-30T18:54:29.777Z,22.40
2022-08-30T18:56:57.101Z,22.32
2022-08-30T18:59:35.563Z,22.25
2022-08-30T19:02:07.232Z,22.15
2022-08-30T19:04:36.790Z,22.12
2022-08-30T19:07:06.977Z,22.10
2022-08-30T19:09:34.913Z,22.14
2022-08-30T19:12:03.220Z,22.08
2022-08-30T19:14:32.582Z,22.12
2022-08-30T19:17:06.015Z,22.08
2022-08-30T19:19:34.892Z,22.06
2022-08-30T19:22:04.536Z,22.12
2022-08-30T19:24:32.252Z,22.14
2022-08-30T19:27:01.188Z,22.18
2022-08-30T19:29:28.483Z,22.13
2022-08-30T19:31:56.766Z,22.14
2022-08-30T19:34:23.889Z,22.19
2022-08-30T19:36:51.214Z,22.18
2022-08-30T19:39:20.331Z,22.15
2022-08-30T19:41:50.638Z,22.09
2022-08-30T19:44:17.842Z,22.11
2022-08-30T19:46:45.255Z,22.18
2022-08-30T19:49:13.138Z,22.19
2022-08-30T19:51:43.988Z,22.17
2022-08-30T19:54:14.669Z,22.17
2022-08-30T19:56:43.071Z,22.13
2022-08-30T19:59:10.125Z,22.06
2022-08-30T20:01:37.989Z,22.00
2022-08-30T20:04:05.142Z,22.00
2022-08-30T20:06:32.778Z,22.00
2022-08-30T20:09:01.591Z,21.98
2022-08-30T20:11:29.781Z,22.03
2022-08-30T20:13:57.621Z,22.06
2022-08-30T20:16:33.050Z,22.09
2022-08-30T20:19:06.369Z,22.07
2022-08-30T20:21:33.948Z,22.17
2022-08-30T20:24:01.457Z,22.08
2022-08-30T20:26:34.256Z,22.06
2022-08-30T20:29:05.380Z,22.07
2022-08-30T20:31:33.643Z,22.07
2022-08-30T20:34:02.431Z,22.04
2022-08-30T20:36:29.404Z,22.03
2022-08-30T20:38:56.770Z,22.02
2022-08-30T20:41:25.241Z,21.99
2022-08-30T20:43:53.077Z,22.02
2022-08-30T20:46:20.955Z,22.00
2022-08-30T20:48:48.399Z,22.00
2022-08-30T20:51:19.910Z,21.95
2022-08-30T20:53:47.167Z,21.95
2022-08-30T20:56:16.332Z,21.95
2022-08-30T20:58:43.795Z,21.94
2022-08-30T21:01:12.582Z,21.92
2022-08-30T21:03:41.053Z,21.95
2022-08-30T21:06:08.283Z,21.93
2022-08-30T21:08:35.049Z,21.86
2022-08-30T21:11:01.992Z,21.76
2022-08-30T21:13:29.013Z,21.74
2022-08-30T21:16:00.337Z,21.65
2022-08-30T21:18:31.249Z,21.58
2022-08-30T21:20:59.872Z,21.51
2022-08-30T21:23:26.756Z,21.43
2022-08-30T21:25:53.579Z,21.31
2022-08-30T21:28:21.052Z,21.20
2022-08-30T21:30:48.123Z,21.14
2022-08-30T21:33:15.170Z,21.08
2022-08-30T21:36:00.825Z,21.13
2022-08-30T21:38:27.772Z,21.06
2022-08-30T21:40:54.877Z,21.03
2022-08-30T21:43:21.542Z,21.01
2022-08-30T21:45:51.503Z,21.04
2022-08-30T21:48:18.590Z,21.01
2022-08-30T21:50:46.473Z,20.93
2022-08-30T21:53:15.485Z,20.98
2022-08-30T21:55:48.156Z,20.96
2022-08-30T21:58:15.158Z,20.86
2022-08-30T22:00:41.815Z,20.80
2022-08-30T22:03:08.982Z,20.70
2022-08-30T22:05:35.855Z,20.58
2022-08-30T22:08:03.487Z,20.55
2022-08-30T22:10:33.172Z,20.47
2022-08-30T22:13:00.744Z,20.35
2022-08-30T22:15:27.548Z,20.23
2022-08-30T22:17:54.351Z,20.18
2022-08-30T22:20:21.145Z,20.13
2022-08-30T22:22:47.878Z,20.09
2022-08-30T22:25:14.679Z,20.15
2022-08-30T22:27:41.527Z,20.27
2022-08-30T22:30:08.905Z,20.36
2022-08-30T22:32:38.124Z,20.11
2022-08-30T22:35:05.658Z,20.09
2022-08-30T22:37:32.328Z,20.11
2022-08-30T22:39:59.205Z,20.51
2022-08-30T22:42:25.999Z,20.27
2022-08-30T22:44:52.879Z,20.18
2022-08-30T22:47:20.910Z,20.11
2022-08-30T22:49:47.742Z,20.02
2022-08-30T22:52:14.509Z,20.12
2022-08-30T22:54:41.363Z,20.15
2022-08-30T22:57:08.159Z,20.06
2022-08-30T22:59:35.491Z,20.04
2022-08-30T23:02:02.310Z,20.04
2022-08-30T23:04:30.079Z,20.04
2022-08-30T23:06:56.814Z,19.98
2022-08-30T23:09:23.579Z,20.00
2022-08-30T23:11:50.214Z,20.05
2022-08-30T23:14:17.056Z,19.96
2022-08-30T23:16:46.913Z,19.94
2022-08-30T23:19:14.854Z,19.96
2022-08-30T23:21:42.167Z,19.96
2022-08-30T23:24:27.474Z,20.00
2022-08-30T23:27:13.134Z,19.89
2022-08-30T23:29:59.379Z,19.84
2022-08-30T23:32:44.614Z,19.79
2022-08-30T23:35:32.054Z,19.79
2022-08-30T23:38:18.890Z,19.76
2022-08-30T23:41:04.075Z,19.78
2022-08-30T23:43:49.644Z,19.77
2022-08-30T23:46:35.227Z,19.88
2022-08-30T23:49:20.584Z,19.75
2022-08-30T23:52:05.938Z,19.66
2022-08-30T23:54:51.309Z,19.62
2022-08-30T23:57:40.999Z,19.59
